Aviation Digital Data Service (ADDS)

Output produced by METARs form (2026 UTC 20 July 2017)
found at http://www.aviationweather.gov/adds/metars/
 
METAR text: KFAM 201956Z AUTO VRB03KT 10SM CLR 35/21 A3007 RMK AO2 SLP169 T03500211
Conditions at: KFAM (FARMINGTON , MO, US) observed 1956 UTC 20 July 2017
Temperature: 35.0°C (95°F)
Dewpoint: 21.1°C (70°F) [RH = 45%]
Pressure (altimeter): 30.07 inches Hg (1018.4 mb)
[Sea-level pressure: 1016.9 mb]
Winds: variable direction winds at 3 MPH (3 knots; 1.6 m/s)
Visibility: 10 or more miles (16+ km)
Ceiling: at least 12,000 feet AGL
Clouds: sky clear below 12,000 feet AGL
Weather: automated observation with no human augmentation;
there may or may not be significant weather present at this time